createdAt,value
2023-10-08T00:01:04.297Z,21.67
2023-10-08T00:02:10.126Z,21.67
2023-10-08T00:03:15.932Z,21.69
2023-10-08T00:04:22.721Z,21.69
2023-10-08T00:05:28.413Z,21.68
2023-10-08T00:06:34.049Z,21.68
2023-10-08T00:07:39.594Z,21.69
2023-10-08T00:08:45.187Z,21.67
2023-10-08T00:09:50.871Z,21.68
2023-10-08T00:10:56.420Z,21.68
2023-10-08T00:12:01.923Z,21.67
2023-10-08T00:13:07.459Z,21.67
2023-10-08T00:14:12.988Z,21.67
2023-10-08T00:15:18.673Z,21.66
2023-10-08T00:16:24.259Z,21.67
2023-10-08T00:17:29.992Z,21.68
2023-10-08T00:18:35.909Z,21.69
2023-10-08T00:19:41.585Z,21.69
2023-10-08T00:20:47.131Z,21.68
2023-10-08T00:21:52.839Z,21.68
2023-10-08T00:22:58.368Z,21.67
2023-10-08T00:24:03.925Z,21.68
2023-10-08T00:25:09.433Z,21.67
2023-10-08T00:26:16.005Z,21.67
2023-10-08T00:27:21.587Z,21.69
2023-10-08T00:28:28.183Z,21.69
2023-10-08T00:29:33.901Z,21.7
2023-10-08T00:30:39.680Z,21.69
2023-10-08T00:31:45.282Z,21.68
2023-10-08T00:32:52.002Z,21.68
2023-10-08T00:33:57.789Z,21.68
2023-10-08T00:35:03.516Z,21.69
2023-10-08T00:36:09.053Z,21.69
2023-10-08T00:37:14.574Z,21.69
2023-10-08T00:38:20.143Z,21.69
2023-10-08T00:39:26.099Z,21.67
2023-10-08T00:40:31.671Z,21.66
2023-10-08T00:41:37.275Z,21.66
2023-10-08T00:42:42.915Z,21.65
2023-10-08T00:43:48.416Z,21.65
2023-10-08T00:44:53.960Z,21.64
2023-10-08T00:45:59.471Z,21.64
2023-10-08T00:47:05.023Z,21.64
2023-10-08T00:48:10.600Z,21.64
2023-10-08T00:49:16.350Z,21.62
2023-10-08T00:50:21.915Z,21.62
2023-10-08T00:51:27.634Z,21.6
2023-10-08T00:52:33.184Z,21.59
2023-10-08T00:53:38.715Z,21.6
2023-10-08T00:54:44.522Z,21.6
2023-10-08T00:55:50.152Z,21.59
2023-10-08T00:56:55.687Z,21.59
2023-10-08T00:58:01.327Z,21.59
2023-10-08T00:59:06.914Z,21.59
2023-10-08T01:00:12.620Z,21.6
2023-10-08T01:01:18.345Z,21.6
2023-10-08T01:02:23.924Z,21.6
2023-10-08T01:03:29.914Z,21.6
2023-10-08T01:04:35.686Z,21.6
2023-10-08T01:05:41.237Z,21.6
2023-10-08T01:06:47.089Z,21.61
2023-10-08T01:07:52.785Z,21.59
2023-10-08T01:08:58.418Z,21.59
2023-10-08T01:10:03.938Z,21.58
2023-10-08T01:11:09.479Z,21.59
2023-10-08T01:12:15.032Z,21.59
2023-10-08T01:13:20.737Z,21.6
2023-10-08T01:14:26.550Z,21.6
2023-10-08T01:15:32.253Z,21.6
2023-10-08T01:16:37.905Z,21.6
2023-10-08T01:17:43.692Z,21.6
2023-10-08T01:18:49.614Z,21.6
2023-10-08T01:19:55.148Z,21.59
2023-10-08T01:21:00.662Z,21.61
2023-10-08T01:22:06.202Z,21.59
2023-10-08T01:23:11.909Z,21.59
2023-10-08T01:24:18.065Z,21.59
2023-10-08T01:25:23.579Z,21.58
2023-10-08T01:26:29.166Z,21.58
2023-10-08T01:27:34.741Z,21.58
2023-10-08T01:28:40.291Z,21.58
2023-10-08T01:29:45.897Z,21.58
2023-10-08T01:30:51.634Z,21.59
2023-10-08T01:31:57.548Z,21.58
2023-10-08T01:33:03.106Z,21.58
2023-10-08T01:34:08.914Z,21.58
2023-10-08T01:35:14.570Z,21.59
2023-10-08T01:36:20.136Z,21.58
2023-10-08T01:37:25.688Z,21.59
2023-10-08T01:38:31.252Z,21.59
2023-10-08T01:39:36.846Z,21.58
2023-10-08T01:40:42.378Z,21.57
2023-10-08T01:41:48.045Z,21.57
2023-10-08T01:42:53.704Z,21.57
2023-10-08T01:43:59.245Z,21.57
2023-10-08T01:45:04.926Z,21.59
2023-10-08T01:46:10.464Z,21.59
2023-10-08T01:47:16.146Z,21.6
2023-10-08T01:48:21.963Z,21.59
2023-10-08T01:49:27.589Z,21.59
2023-10-08T01:50:33.170Z,21.58
2023-10-08T01:51:38.866Z,21.57
2023-10-08T01:52:44.438Z,21.58
2023-10-08T01:53:50.020Z,21.57
2023-10-08T01:54:58.370Z,21.57
2023-10-08T01:56:03.926Z,21.57
2023-10-08T01:57:09.545Z,21.57
2023-10-08T01:58:15.146Z,21.56
2023-10-08T01:59:20.684Z,21.56
2023-10-08T02:00:26.289Z,21.57
2023-10-08T02:01:31.892Z,21.56
2023-10-08T02:02:37.612Z,21.57
2023-10-08T02:03:43.786Z,21.57
2023-10-08T02:04:49.646Z,21.57
2023-10-08T02:05:55.319Z,21.55
2023-10-08T02:07:00.991Z,21.55
2023-10-08T02:08:06.532Z,21.55
2023-10-08T02:09:12.280Z,21.55
2023-10-08T02:10:18.142Z,21.56
2023-10-08T02:11:23.680Z,21.56
2023-10-08T02:12:29.323Z,21.58
2023-10-08T02:13:34.819Z,21.59
2023-10-08T02:14:40.366Z,21.58
2023-10-08T02:15:46.192Z,21.58
2023-10-08T02:16:51.739Z,21.6
2023-10-08T02:17:57.384Z,21.59
2023-10-08T02:19:03.159Z,21.6
2023-10-08T02:20:08.686Z,21.6
2023-10-08T02:21:14.249Z,21.6
2023-10-08T02:22:19.767Z,21.58
2023-10-08T02:23:25.371Z,21.59
2023-10-08T02:24:31.097Z,21.59
2023-10-08T02:25:36.689Z,21.58
2023-10-08T02:26:42.260Z,21.58
2023-10-08T02:27:48.001Z,21.58
2023-10-08T02:28:53.489Z,21.6
2023-10-08T02:29:59.005Z,21.6
2023-10-08T02:31:04.572Z,21.58
2023-10-08T02:32:10.110Z,21.58
2023-10-08T02:33:15.759Z,21.59
2023-10-08T02:34:22.261Z,21.58
2023-10-08T02:35:27.836Z,21.6
2023-10-08T02:36:33.509Z,21.6
2023-10-08T02:37:38.985Z,21.61
2023-10-08T02:38:44.595Z,21.62
2023-10-08T02:39:50.364Z,21.62
2023-10-08T02:40:55.935Z,21.62
2023-10-08T02:42:01.678Z,21.63
2023-10-08T02:43:07.260Z,21.63
2023-10-08T02:44:12.862Z,21.63
2023-10-08T02:45:18.491Z,21.61
2023-10-08T02:46:24.077Z,21.62
2023-10-08T02:47:29.906Z,21.63
2023-10-08T02:48:35.728Z,21.63
2023-10-08T02:49:41.391Z,21.63
2023-10-08T02:50:47.072Z,21.64
2023-10-08T02:51:52.777Z,21.63
2023-10-08T02:52:58.496Z,21.63
2023-10-08T02:54:03.995Z,21.63
2023-10-08T02:55:09.578Z,21.63
2023-10-08T02:56:15.209Z,21.64
2023-10-08T02:57:20.921Z,21.63
2023-10-08T02:58:26.415Z,21.63
2023-10-08T02:59:31.964Z,21.64
2023-10-08T03:00:37.618Z,21.64
2023-10-08T03:01:43.226Z,21.64
2023-10-08T03:02:49.060Z,21.65
2023-10-08T03:03:55.968Z,21.64
2023-10-08T03:05:01.919Z,21.64
2023-10-08T03:06:07.460Z,21.64
2023-10-08T03:07:14.064Z,21.65
2023-10-08T03:08:19.604Z,21.64
2023-10-08T03:09:25.823Z,21.65
2023-10-08T03:10:31.357Z,21.65
2023-10-08T03:11:36.930Z,21.66
2023-10-08T03:12:42.561Z,21.65
2023-10-08T03:13:48.077Z,21.64
2023-10-08T03:14:53.611Z,21.62
2023-10-08T03:15:59.431Z,21.62
2023-10-08T03:17:05.244Z,21.64
2023-10-08T03:18:10.850Z,21.64
2023-10-08T03:19:16.715Z,21.64
2023-10-08T03:20:22.290Z,21.64
2023-10-08T03:21:27.963Z,21.64
2023-10-08T03:22:33.477Z,21.64
2023-10-08T03:23:39.051Z,21.64
2023-10-08T03:24:44.837Z,21.64
2023-10-08T03:25:50.370Z,21.63
2023-10-08T03:26:55.980Z,21.61
2023-10-08T03:28:01.552Z,21.62
2023-10-08T03:29:07.155Z,21.62
2023-10-08T03:30:12.909Z,21.62
2023-10-08T03:31:18.517Z,21.61
2023-10-08T03:32:24.198Z,21.6
2023-10-08T03:33:30.052Z,21.59
2023-10-08T03:34:35.679Z,21.59
2023-10-08T03:35:41.299Z,21.59
2023-10-08T03:36:46.895Z,21.6
2023-10-08T03:37:52.475Z,21.6
2023-10-08T03:38:58.095Z,21.61
2023-10-08T03:40:03.981Z,21.6
2023-10-08T03:41:09.527Z,21.59
2023-10-08T03:42:15.073Z,21.59
2023-10-08T03:43:20.666Z,21.58
2023-10-08T03:44:26.197Z,21.57
2023-10-08T03:45:31.772Z,21.58
2023-10-08T03:46:37.485Z,21.59
2023-10-08T03:47:43.049Z,21.59
2023-10-08T03:48:48.812Z,21.6
2023-10-08T03:49:54.331Z,21.6
2023-10-08T03:50:59.842Z,21.59
2023-10-08T03:52:05.404Z,21.59
2023-10-08T03:53:10.928Z,21.6
2023-10-08T03:54:16.624Z,21.59
2023-10-08T03:55:22.200Z,21.57
2023-10-08T03:56:27.741Z,21.57
2023-10-08T03:57:33.424Z,21.58
2023-10-08T03:58:38.926Z,21.57
2023-10-08T03:59:44.595Z,21.57
2023-10-08T04:00:50.223Z,21.57
2023-10-08T04:01:55.810Z,21.55
2023-10-08T04:03:01.352Z,21.58
2023-10-08T04:04:07.212Z,21.6
2023-10-08T04:05:12.909Z,21.64
2023-10-08T04:06:18.610Z,21.67
2023-10-08T04:07:24.094Z,21.72
2023-10-08T04:08:29.672Z,21.78
2023-10-08T04:09:35.363Z,21.85
2023-10-08T04:10:40.908Z,21.89
2023-10-08T04:11:46.515Z,21.95
2023-10-08T04:12:52.343Z,21.99
2023-10-08T04:13:57.869Z,22.03
2023-10-08T04:15:03.402Z,22.06
2023-10-08T04:16:08.985Z,22.1
2023-10-08T04:17:14.712Z,22.11
2023-10-08T04:18:20.401Z,22.15
2023-10-08T04:19:26.394Z,22.18
2023-10-08T04:20:32.460Z,22.19
2023-10-08T04:21:38.424Z,22.2
2023-10-08T04:22:43.980Z,22.22
2023-10-08T04:23:49.578Z,22.21
2023-10-08T04:24:55.455Z,22.21
2023-10-08T04:26:00.965Z,22.21
2023-10-08T04:27:06.568Z,22.19
2023-10-08T04:28:12.183Z,22.2
2023-10-08T04:29:17.833Z,22.19
2023-10-08T04:30:23.474Z,22.18
2023-10-08T04:31:29.171Z,22.19
2023-10-08T04:32:34.882Z,22.19
2023-10-08T04:33:40.580Z,22.18
2023-10-08T04:34:46.072Z,22.17
2023-10-08T04:35:51.583Z,22.16
2023-10-08T04:36:57.393Z,22.14
2023-10-08T04:38:03.078Z,22.13
2023-10-08T04:39:08.690Z,22.12
2023-10-08T04:40:14.561Z,22.12
2023-10-08T04:41:20.269Z,22.09
2023-10-08T04:42:26.005Z,22.09
2023-10-08T04:43:32.424Z,22.07
2023-10-08T04:44:38.019Z,22.07
2023-10-08T04:45:43.709Z,22.06
2023-10-08T04:46:49.333Z,22.03
2023-10-08T04:47:55.007Z,22.04
2023-10-08T04:49:00.756Z,22.02
2023-10-08T04:50:06.283Z,22.01
2023-10-08T04:51:14.490Z,22
2023-10-08T04:52:20.027Z,22
2023-10-08T04:53:25.586Z,22
2023-10-08T04:54:31.534Z,21.98
2023-10-08T04:55:39.604Z,21.99
2023-10-08T04:56:45.167Z,21.97
2023-10-08T04:57:50.911Z,21.97
2023-10-08T04:58:56.440Z,21.96
2023-10-08T05:00:01.958Z,21.95
2023-10-08T05:01:07.532Z,21.95
2023-10-08T05:02:13.145Z,21.94
2023-10-08T05:03:18.952Z,21.93
2023-10-08T05:04:25.835Z,21.93
2023-10-08T05:05:35.213Z,21.95
2023-10-08T05:06:40.791Z,21.95
2023-10-08T05:07:46.317Z,21.95
2023-10-08T05:08:51.844Z,21.96
2023-10-08T05:09:57.525Z,21.97
2023-10-08T05:11:03.019Z,21.98
2023-10-08T05:12:08.528Z,21.99
2023-10-08T05:13:14.083Z,22
2023-10-08T05:14:19.755Z,22
2023-10-08T05:15:25.359Z,22
2023-10-08T05:16:30.942Z,22.01
2023-10-08T05:17:36.634Z,22.01
2023-10-08T05:18:42.428Z,22.02
2023-10-08T05:19:48.083Z,22.02
2023-10-08T05:20:53.629Z,22.03
2023-10-08T05:22:02.030Z,22.03
2023-10-08T05:23:07.593Z,22.02
2023-10-08T05:24:13.131Z,22.01
2023-10-08T05:25:18.681Z,22.03
2023-10-08T05:26:24.276Z,22.02
2023-10-08T05:27:29.920Z,22.01
2023-10-08T05:28:35.484Z,22.05
2023-10-08T05:29:41.051Z,22.05
2023-10-08T05:30:46.815Z,22.05
2023-10-08T05:31:52.501Z,22.06
2023-10-08T05:32:58.114Z,22.08
2023-10-08T05:34:03.950Z,22.08
2023-10-08T05:35:09.518Z,22.08
2023-10-08T05:36:15.084Z,22.07
2023-10-08T05:37:20.646Z,22.08
2023-10-08T05:38:26.185Z,22.07
2023-10-08T05:39:34.362Z,22.07
2023-10-08T05:40:40.704Z,22.07
2023-10-08T05:41:46.308Z,22.05
2023-10-08T05:42:52.076Z,22.04
2023-10-08T05:43:57.617Z,22.03
2023-10-08T05:45:03.149Z,22.04
2023-10-08T05:46:08.687Z,22.08
2023-10-08T05:47:14.225Z,22.08
2023-10-08T05:48:19.773Z,22.08
2023-10-08T05:49:25.599Z,22.13
2023-10-08T05:50:31.141Z,22.15
2023-10-08T05:51:36.768Z,22.2
2023-10-08T05:52:42.537Z,22.23
2023-10-08T05:53:48.190Z,22.24
2023-10-08T05:54:55.021Z,22.27
2023-10-08T05:56:00.645Z,22.21
2023-10-08T05:57:06.553Z,22.14
2023-10-08T05:58:12.089Z,22.09
2023-10-08T05:59:17.815Z,22.04
2023-10-08T06:00:23.866Z,22.01
2023-10-08T06:01:29.494Z,21.96
2023-10-08T06:02:35.512Z,21.92
2023-10-08T06:03:41.460Z,21.88
2023-10-08T06:04:47.423Z,21.86
2023-10-08T06:05:52.954Z,21.82
2023-10-08T06:06:58.606Z,21.79
2023-10-08T06:08:04.176Z,21.79
2023-10-08T06:09:09.723Z,21.78
2023-10-08T06:10:16.075Z,21.75
2023-10-08T06:11:21.641Z,21.77
2023-10-08T06:12:27.263Z,21.79
2023-10-08T06:13:32.849Z,21.78
2023-10-08T06:14:38.390Z,21.77
2023-10-08T06:15:43.982Z,21.75
2023-10-08T06:16:49.538Z,21.73
2023-10-08T06:17:57.545Z,21.72
2023-10-08T06:19:04.267Z,21.72
2023-10-08T06:20:09.827Z,21.71
2023-10-08T06:21:15.342Z,21.71
2023-10-08T06:22:20.883Z,21.71
2023-10-08T06:23:26.441Z,21.72
2023-10-08T06:24:32.359Z,21.74
2023-10-08T06:25:37.855Z,21.77
2023-10-08T06:26:43.629Z,21.79
2023-10-08T06:27:49.328Z,21.79
2023-10-08T06:28:54.955Z,21.77
2023-10-08T06:30:00.502Z,21.78
2023-10-08T06:31:06.070Z,21.78
2023-10-08T06:32:11.722Z,21.77
2023-10-08T06:33:17.352Z,21.77
2023-10-08T06:34:23.305Z,21.76
2023-10-08T06:35:28.870Z,21.77
2023-10-08T06:36:34.554Z,21.76
2023-10-08T06:37:40.442Z,21.77
2023-10-08T06:38:46.038Z,21.77
2023-10-08T06:39:51.641Z,21.77
2023-10-08T06:40:57.128Z,21.76
2023-10-08T06:42:04.142Z,21.76
2023-10-08T06:43:09.786Z,21.76
2023-10-08T06:44:15.992Z,21.75
2023-10-08T06:45:22.011Z,21.75
2023-10-08T06:46:27.572Z,21.77
2023-10-08T06:47:33.248Z,21.75
2023-10-08T06:48:39.028Z,21.76
2023-10-08T06:49:44.825Z,21.76
2023-10-08T06:50:50.600Z,21.77
2023-10-08T06:51:56.526Z,21.77
2023-10-08T06:53:02.072Z,21.78
2023-10-08T06:54:07.600Z,21.76
2023-10-08T06:55:13.365Z,21.76
2023-10-08T06:56:18.904Z,21.76
2023-10-08T06:57:24.467Z,21.76
2023-10-08T06:58:30.015Z,21.75
2023-10-08T06:59:35.674Z,21.76
2023-10-08T07:00:41.416Z,21.75
2023-10-08T07:01:47.452Z,21.75
2023-10-08T07:02:53.148Z,21.75
2023-10-08T07:03:59.635Z,21.75
2023-10-08T07:05:05.761Z,21.76
2023-10-08T07:06:11.620Z,21.75
2023-10-08T07:07:17.296Z,21.74
2023-10-08T07:08:23.126Z,21.74
2023-10-08T07:09:28.888Z,21.74
2023-10-08T07:10:35.261Z,21.75
2023-10-08T07:11:40.875Z,21.75
2023-10-08T07:12:46.542Z,21.73
2023-10-08T07:13:52.085Z,21.74
2023-10-08T07:14:57.634Z,21.74
2023-10-08T07:16:03.295Z,21.73
2023-10-08T07:17:08.842Z,21.73
2023-10-08T07:18:14.531Z,21.74
2023-10-08T07:19:20.436Z,21.74
2023-10-08T07:20:26.517Z,21.74
2023-10-08T07:21:32.165Z,21.72
2023-10-08T07:22:37.683Z,21.72
2023-10-08T07:23:43.311Z,21.73
2023-10-08T07:24:48.902Z,21.76
2023-10-08T07:25:54.872Z,21.79
2023-10-08T07:27:00.388Z,21.77
2023-10-08T07:28:06.102Z,21.77
2023-10-08T07:29:11.630Z,21.77
2023-10-08T07:30:17.155Z,21.77
2023-10-08T07:31:22.775Z,21.77
2023-10-08T07:32:28.342Z,21.77
2023-10-08T07:33:34.223Z,21.76
2023-10-08T07:34:39.916Z,21.75
2023-10-08T07:35:45.529Z,21.74
2023-10-08T07:36:51.170Z,21.73
2023-10-08T07:37:59.187Z,21.74
2023-10-08T07:39:04.830Z,21.74
2023-10-08T07:40:10.579Z,21.73
2023-10-08T07:41:16.114Z,21.73
2023-10-08T07:42:21.644Z,21.72
2023-10-08T07:43:30.093Z,21.73
2023-10-08T07:44:36.053Z,21.73
2023-10-08T07:45:42.043Z,21.72
2023-10-08T07:46:47.589Z,21.72
2023-10-08T07:47:53.168Z,21.7
2023-10-08T07:48:58.911Z,21.7
2023-10-08T07:50:04.493Z,21.69
2023-10-08T07:51:10.021Z,21.7
2023-10-08T07:52:15.548Z,21.69
2023-10-08T07:53:22.154Z,21.7
2023-10-08T07:54:27.889Z,21.68
2023-10-08T07:55:33.483Z,21.68
2023-10-08T07:56:39.014Z,21.68
2023-10-08T07:57:44.969Z,21.66
2023-10-08T07:58:50.521Z,21.66
2023-10-08T07:59:56.537Z,21.65
2023-10-08T08:01:02.296Z,21.66
2023-10-08T08:02:07.815Z,21.65
2023-10-08T08:03:13.529Z,21.66
2023-10-08T08:04:19.352Z,21.66
2023-10-08T08:05:25.103Z,21.66
2023-10-08T08:06:31.024Z,21.66
2023-10-08T08:07:36.550Z,21.65
2023-10-08T08:08:42.129Z,21.64
2023-10-08T08:09:50.001Z,21.62
2023-10-08T08:10:56.959Z,21.6
2023-10-08T08:12:02.632Z,21.62
2023-10-08T08:13:08.294Z,21.62
2023-10-08T08:14:13.937Z,21.62
2023-10-08T08:15:19.624Z,21.6
2023-10-08T08:16:25.174Z,21.59
2023-10-08T08:17:30.940Z,21.6
2023-10-08T08:18:36.999Z,21.6
2023-10-08T08:19:42.862Z,21.59
2023-10-08T08:20:48.454Z,21.59
2023-10-08T08:21:54.099Z,21.57
2023-10-08T08:22:59.614Z,21.59
2023-10-08T08:24:05.402Z,21.58
2023-10-08T08:25:11.240Z,21.59
2023-10-08T08:26:16.803Z,21.59
2023-10-08T08:27:22.337Z,21.57
2023-10-08T08:28:28.228Z,21.57
2023-10-08T08:29:33.793Z,21.56
2023-10-08T08:30:39.714Z,21.55
2023-10-08T08:31:45.381Z,21.56
2023-10-08T08:32:53.760Z,21.56
2023-10-08T08:33:59.791Z,21.56
2023-10-08T08:35:05.352Z,21.57
2023-10-08T08:36:10.941Z,21.56
2023-10-08T08:37:16.508Z,21.55
2023-10-08T08:38:22.046Z,21.54
2023-10-08T08:39:27.650Z,21.54
2023-10-08T08:40:33.447Z,21.54
2023-10-08T08:41:39.006Z,21.54
2023-10-08T08:42:44.781Z,21.52
2023-10-08T08:43:50.501Z,21.52
2023-10-08T08:44:56.004Z,21.52
2023-10-08T08:46:01.693Z,21.52
2023-10-08T08:47:07.598Z,21.52
2023-10-08T08:48:13.324Z,21.52
2023-10-08T08:49:19.142Z,21.52
2023-10-08T08:50:24.688Z,21.5
2023-10-08T08:51:30.385Z,21.52
2023-10-08T08:52:35.912Z,21.51
2023-10-08T08:53:41.555Z,21.5
2023-10-08T08:54:47.139Z,21.49
2023-10-08T08:55:52.681Z,21.49
2023-10-08T08:56:58.221Z,21.49
2023-10-08T08:58:03.836Z,21.49
2023-10-08T08:59:09.447Z,21.48
2023-10-08T09:00:14.936Z,21.49
2023-10-08T09:01:20.616Z,21.49
2023-10-08T09:02:26.241Z,21.47
2023-10-08T09:03:32.467Z,21.47
2023-10-08T09:04:38.588Z,21.48
2023-10-08T09:05:44.253Z,21.48
2023-10-08T09:06:49.970Z,21.49
2023-10-08T09:07:56.542Z,21.5
2023-10-08T09:09:02.442Z,21.49
2023-10-08T09:10:08.100Z,21.48
2023-10-08T09:11:13.712Z,21.48
2023-10-08T09:12:19.262Z,21.48
2023-10-08T09:13:24.852Z,21.48
2023-10-08T09:14:30.420Z,21.48
2023-10-08T09:15:36.153Z,21.44
2023-10-08T09:16:41.801Z,21.45
2023-10-08T09:17:47.523Z,21.44
2023-10-08T09:18:54.385Z,21.46
2023-10-08T09:19:59.883Z,21.46
2023-10-08T09:21:05.502Z,21.45
2023-10-08T09:22:11.159Z,21.45
2023-10-08T09:23:16.801Z,21.45
2023-10-08T09:24:22.310Z,21.42
2023-10-08T09:25:27.803Z,21.42
2023-10-08T09:26:33.448Z,21.43
2023-10-08T09:27:39.048Z,21.44
2023-10-08T09:28:47.805Z,21.44
2023-10-08T09:29:53.393Z,21.44
2023-10-08T09:30:59.078Z,21.43
2023-10-08T09:32:04.627Z,21.44
2023-10-08T09:33:10.432Z,21.43
2023-10-08T09:34:16.405Z,21.44
2023-10-08T09:35:21.961Z,21.44
2023-10-08T09:36:27.521Z,21.43
2023-10-08T09:37:33.093Z,21.43
2023-10-08T09:38:38.672Z,21.44
2023-10-08T09:39:44.308Z,21.42
2023-10-08T09:40:49.882Z,21.43
2023-10-08T09:41:55.599Z,21.42
2023-10-08T09:43:01.350Z,21.42
2023-10-08T09:44:06.869Z,21.42
2023-10-08T09:45:12.400Z,21.41
2023-10-08T09:46:18.004Z,21.41
2023-10-08T09:47:23.867Z,21.41
2023-10-08T09:48:29.626Z,21.42
2023-10-08T09:49:35.600Z,21.41
2023-10-08T09:50:41.140Z,21.42
2023-10-08T09:51:46.866Z,21.41
2023-10-08T09:52:52.438Z,21.41
2023-10-08T09:53:57.979Z,21.41
2023-10-08T09:55:04.063Z,21.4
2023-10-08T09:56:09.543Z,21.41
2023-10-08T09:57:15.072Z,21.41
2023-10-08T09:58:20.607Z,21.42
2023-10-08T09:59:26.164Z,21.4
2023-10-08T10:00:31.794Z,21.41
2023-10-08T10:01:40.386Z,21.41
2023-10-08T10:02:46.152Z,21.41
2023-10-08T10:03:52.212Z,21.4
2023-10-08T10:04:58.108Z,21.4
2023-10-08T10:06:03.649Z,21.39
2023-10-08T10:07:09.282Z,21.4
2023-10-08T10:08:14.857Z,21.4
2023-10-08T10:09:20.401Z,21.37
2023-10-08T10:10:26.240Z,21.38
2023-10-08T10:11:31.831Z,21.38
2023-10-08T10:12:37.493Z,21.38
2023-10-08T10:13:43.421Z,21.37
2023-10-08T10:14:49.112Z,21.37
2023-10-08T10:15:54.726Z,21.36
2023-10-08T10:17:00.310Z,21.36
2023-10-08T10:18:05.885Z,21.37
2023-10-08T10:19:11.777Z,21.38
2023-10-08T10:20:17.512Z,21.38
2023-10-08T10:21:23.091Z,21.38
2023-10-08T10:22:28.602Z,21.38
2023-10-08T10:23:34.186Z,21.38
2023-10-08T10:24:39.875Z,21.38
2023-10-08T10:25:45.444Z,21.37
2023-10-08T10:26:50.966Z,21.37
2023-10-08T10:27:56.682Z,21.38
2023-10-08T10:29:02.284Z,21.37
2023-10-08T10:30:07.858Z,21.36
2023-10-08T10:31:13.474Z,21.37
2023-10-08T10:32:19.190Z,21.37
2023-10-08T10:33:24.764Z,21.37
2023-10-08T10:34:30.515Z,21.35
2023-10-08T10:35:36.104Z,21.36
2023-10-08T10:36:41.721Z,21.36
2023-10-08T10:37:47.346Z,21.36
2023-10-08T10:38:52.830Z,21.35
2023-10-08T10:39:58.468Z,21.35
2023-10-08T10:41:03.988Z,21.34
2023-10-08T10:42:09.600Z,21.34
2023-10-08T10:43:15.163Z,21.33
2023-10-08T10:44:20.664Z,21.34
2023-10-08T10:45:26.306Z,21.33
2023-10-08T10:46:32.088Z,21.34
2023-10-08T10:47:37.895Z,21.35
2023-10-08T10:48:43.700Z,21.34
2023-10-08T10:49:49.629Z,21.34
2023-10-08T10:50:55.169Z,21.33
2023-10-08T10:52:00.923Z,21.35
2023-10-08T10:53:06.423Z,21.36
2023-10-08T10:54:12.102Z,21.35
2023-10-08T10:55:18.306Z,21.35
2023-10-08T10:56:23.928Z,21.33
2023-10-08T10:57:29.540Z,21.34
2023-10-08T10:58:35.291Z,21.34
2023-10-08T10:59:42.944Z,21.34
2023-10-08T11:00:49.843Z,21.33
2023-10-08T11:01:55.497Z,21.33
2023-10-08T11:03:01.301Z,21.34
2023-10-08T11:04:07.438Z,21.34
2023-10-08T11:05:13.367Z,21.34
2023-10-08T11:06:18.927Z,21.35
2023-10-08T11:07:24.558Z,21.34
2023-10-08T11:08:30.117Z,21.34
2023-10-08T11:09:35.969Z,21.33
2023-10-08T11:10:41.602Z,21.35
2023-10-08T11:11:47.197Z,21.34
2023-10-08T11:12:52.972Z,21.34
2023-10-08T11:13:58.525Z,21.33
2023-10-08T11:15:05.053Z,21.34
2023-10-08T11:16:11.021Z,21.32
2023-10-08T11:17:16.687Z,21.32
2023-10-08T11:18:22.400Z,21.31
2023-10-08T11:19:30.952Z,21.29
2023-10-08T11:20:36.527Z,21.29
2023-10-08T11:21:42.231Z,21.31
2023-10-08T11:22:47.770Z,21.3
2023-10-08T11:23:53.326Z,21.3
2023-10-08T11:24:59.854Z,21.29
2023-10-08T11:26:05.519Z,21.3
2023-10-08T11:27:11.502Z,21.29
2023-10-08T11:28:17.097Z,21.3
2023-10-08T11:29:22.610Z,21.28
2023-10-08T11:30:28.151Z,21.31
2023-10-08T11:31:33.696Z,21.3
2023-10-08T11:32:40.213Z,21.31
2023-10-08T11:33:45.922Z,21.3
2023-10-08T11:34:51.688Z,21.3
2023-10-08T11:35:57.270Z,21.3
2023-10-08T11:37:03.077Z,21.3
2023-10-08T11:38:08.600Z,21.3
2023-10-08T11:39:14.133Z,21.28
2023-10-08T11:40:19.628Z,21.29
2023-10-08T11:41:25.100Z,21.3
2023-10-08T11:42:30.722Z,21.31
2023-10-08T11:43:36.303Z,21.3
2023-10-08T11:44:41.866Z,21.3
2023-10-08T11:45:47.475Z,21.3
2023-10-08T11:46:53.242Z,21.29
2023-10-08T11:47:59.010Z,21.29
2023-10-08T11:49:04.781Z,21.29
2023-10-08T11:50:10.342Z,21.29
2023-10-08T11:51:15.977Z,21.29
2023-10-08T11:52:21.638Z,21.29
2023-10-08T11:53:27.590Z,21.28
2023-10-08T11:54:33.269Z,21.29
2023-10-08T11:55:38.820Z,21.29
2023-10-08T11:56:44.539Z,21.28
2023-10-08T11:57:50.304Z,21.3
2023-10-08T11:58:55.933Z,21.3
2023-10-08T12:00:01.565Z,21.29
2023-10-08T12:01:12.391Z,21.29
2023-10-08T12:02:18.143Z,21.29
2023-10-08T12:03:23.778Z,21.29
2023-10-08T12:04:29.901Z,21.3
2023-10-08T12:05:36.162Z,21.3
2023-10-08T12:06:42.498Z,21.29
2023-10-08T12:07:48.130Z,21.27
2023-10-08T12:08:53.726Z,21.28
2023-10-08T12:09:59.471Z,21.28
2023-10-08T12:11:05.019Z,21.28
2023-10-08T12:12:10.708Z,21.28
2023-10-08T12:13:18.183Z,21.29
2023-10-08T12:14:24.417Z,21.28
2023-10-08T12:15:29.965Z,21.27
2023-10-08T12:16:35.518Z,21.27
2023-10-08T12:17:41.181Z,21.27
2023-10-08T12:18:46.974Z,21.26
2023-10-08T12:19:53.119Z,21.25
2023-10-08T12:20:58.678Z,21.25
2023-10-08T12:22:04.420Z,21.26
2023-10-08T12:23:09.931Z,21.25
2023-10-08T12:24:15.820Z,21.24
2023-10-08T12:25:21.887Z,21.24
2023-10-08T12:26:27.463Z,21.24
2023-10-08T12:27:32.989Z,21.25
2023-10-08T12:28:38.508Z,21.25
2023-10-08T12:29:44.075Z,21.25
2023-10-08T12:30:49.850Z,21.25
2023-10-08T12:31:55.606Z,21.25
2023-10-08T12:33:01.376Z,21.25
2023-10-08T12:34:07.348Z,21.25
2023-10-08T12:35:12.924Z,21.27
2023-10-08T12:36:18.472Z,21.26
2023-10-08T12:37:24.018Z,21.25
2023-10-08T12:38:29.571Z,21.24
2023-10-08T12:39:35.153Z,21.23
2023-10-08T12:40:40.693Z,21.26
2023-10-08T12:41:46.593Z,21.25
2023-10-08T12:42:52.353Z,21.27
2023-10-08T12:43:57.885Z,21.26
2023-10-08T12:45:03.619Z,21.28
2023-10-08T12:46:09.346Z,21.28
2023-10-08T12:47:14.998Z,21.27
2023-10-08T12:48:20.650Z,21.27
2023-10-08T12:49:26.461Z,21.26
2023-10-08T12:50:32.029Z,21.27
2023-10-08T12:51:37.654Z,21.25
2023-10-08T12:52:43.251Z,21.25
2023-10-08T12:53:48.823Z,21.23
2023-10-08T12:54:54.934Z,21.25
2023-10-08T12:56:00.461Z,21.24
2023-10-08T12:57:06.068Z,21.25
2023-10-08T12:58:12.049Z,21.26
2023-10-08T12:59:17.550Z,21.25
2023-10-08T13:00:23.042Z,21.26
2023-10-08T13:01:28.762Z,21.26
2023-10-08T13:02:34.348Z,21.25
2023-10-08T13:03:40.626Z,21.24
2023-10-08T13:04:46.662Z,21.24
2023-10-08T13:05:52.206Z,21.23
2023-10-08T13:07:00.124Z,21.21
2023-10-08T13:08:05.940Z,21.23
2023-10-08T13:09:11.476Z,21.24
2023-10-08T13:10:17.152Z,21.24
2023-10-08T13:11:22.772Z,21.27
2023-10-08T13:12:28.404Z,21.27
2023-10-08T13:13:33.968Z,21.26
2023-10-08T13:14:39.519Z,21.28
2023-10-08T13:15:45.111Z,21.27
2023-10-08T13:16:50.722Z,21.28
2023-10-08T13:17:56.388Z,21.27
2023-10-08T13:19:02.168Z,21.27
2023-10-08T13:20:07.716Z,21.3
2023-10-08T13:21:13.303Z,21.31
2023-10-08T13:22:19.168Z,21.32
2023-10-08T13:23:24.726Z,21.32
2023-10-08T13:24:30.361Z,21.32
2023-10-08T13:25:35.948Z,21.33
2023-10-08T13:26:41.463Z,21.33
2023-10-08T13:27:47.060Z,21.33
2023-10-08T13:28:52.570Z,21.33
2023-10-08T13:29:58.157Z,21.33
2023-10-08T13:31:03.934Z,21.33
2023-10-08T13:32:09.836Z,21.34
2023-10-08T13:33:15.531Z,21.35
2023-10-08T13:34:21.356Z,21.36
2023-10-08T13:35:26.877Z,21.37
2023-10-08T13:36:32.419Z,21.37
2023-10-08T13:37:38.005Z,21.38
2023-10-08T13:38:43.575Z,21.38
2023-10-08T13:39:49.177Z,21.38
2023-10-08T13:40:54.658Z,21.4
2023-10-08T13:42:00.251Z,21.4
2023-10-08T13:43:05.912Z,21.41
2023-10-08T13:44:11.567Z,21.41
2023-10-08T13:45:17.952Z,21.41
2023-10-08T13:46:23.682Z,21.42
2023-10-08T13:47:29.408Z,21.42
2023-10-08T13:48:35.106Z,21.41
2023-10-08T13:49:41.156Z,21.42
2023-10-08T13:50:46.707Z,21.42
2023-10-08T13:51:52.378Z,21.43
2023-10-08T13:52:57.897Z,21.44
2023-10-08T13:54:03.580Z,21.44
2023-10-08T13:55:09.568Z,21.45
2023-10-08T13:56:15.127Z,21.47
2023-10-08T13:57:20.793Z,21.47
2023-10-08T13:58:26.418Z,21.47
2023-10-08T13:59:31.975Z,21.48
2023-10-08T14:00:38.382Z,21.49
2023-10-08T14:01:43.940Z,21.51
2023-10-08T14:02:50.454Z,21.5
2023-10-08T14:03:56.336Z,21.5
2023-10-08T14:05:02.355Z,21.5
2023-10-08T14:06:07.926Z,21.51
2023-10-08T14:07:13.650Z,21.53
2023-10-08T14:08:19.220Z,21.53
2023-10-08T14:09:24.743Z,21.55
2023-10-08T14:10:30.281Z,21.55